AYNZ

Lae Nadzab Airport

Airport
ICAO code
AYNZ
IATA Code
LAE
Summary
ICAO Region
APAC
ICAO Territory
Location

Nadzab, Morobe

Serving
Lae
Elevation
239 ft
Coordinates
6° 34' 11" S , 146° 43' 34" E
KCC
Metar
Observation
AYNZ 280600Z 09010G15KT 9999 SCT040 SCT050 30/22 Q1006=
Station
NADZAB
Date/Time
2022-09-28 06:00:00
Wind direction
90°
Wind speed
10 kts
Lowest cloud amount
scattered clouds
Temperature
30°C
Dew point
22°C
Humidity
62%
QNH
1006 hPa
Weather condition
n/a

Lae Nadzab Airport, is an airport located in Nadzab, Papua New Guinea.

Climatology

Tropical Rainforest climate (Köppen climate classification Af) - almost no distinct seasons, average daily temperature around 27°C throughout the year. Extensive cloud cover and heavy rainfall prevent temperatures from rising much over 33°C. The diurnal temperature change is between 2°C and 5°C which is greater than the annual temperature range of 2°C. Rainfall is heavy and is usually convectional and in the afternoon.

Runways

Designator Length Width Surface Rops
9/27 2440 30 ASP No/No

Airport map

Aerial View

SKYbrary Partners:

Safety knowledge contributed by: